sensor_id;sensor_type;location;lat;lon;timestamp;P1;durP1;ratioP1;P2;durP2;ratioP2
5245;SDS011;54412;51.206;6.888;2022-07-06T00:01:43;4.47;;;1.63;;
5245;SDS011;54412;51.206;6.888;2022-07-06T00:04:09;5.13;;;1.70;;
5245;SDS011;54412;51.206;6.888;2022-07-06T00:06:34;2.50;;;1.80;;
5245;SDS011;54412;51.206;6.888;2022-07-06T00:09:00;6.83;;;1.77;;
5245;SDS011;54412;51.206;6.888;2022-07-06T00:11:28;2.43;;;1.53;;
5245;SDS011;54412;51.206;6.888;2022-07-06T00:13:54;6.07;;;1.60;;
5245;SDS011;54412;51.206;6.888;2022-07-06T00:16:21;2.53;;;1.57;;
5245;SDS011;54412;51.206;6.888;2022-07-06T00:18:48;3.70;;;1.70;;
5245;SDS011;54412;51.206;6.888;2022-07-06T00:21:14;5.33;;;1.70;;
5245;SDS011;54412;51.206;6.888;2022-07-06T00:23:40;2.30;;;1.80;;
5245;SDS011;54412;51.206;6.888;2022-07-06T00:26:06;3.33;;;1.53;;
5245;SDS011;54412;51.206;6.888;2022-07-06T00:28:32;2.13;;;1.70;;
5245;SDS011;54412;51.206;6.888;2022-07-06T00:30:57;4.90;;;1.97;;
5245;SDS011;54412;51.206;6.888;2022-07-06T00:33:23;3.23;;;1.60;;
5245;SDS011;54412;51.206;6.888;2022-07-06T00:35:49;3.23;;;1.40;;
5245;SDS011;54412;51.206;6.888;2022-07-06T00:38:14;4.03;;;1.60;;
5245;SDS011;54412;51.206;6.888;2022-07-06T00:40:41;6.43;;;2.00;;
5245;SDS011;54412;51.206;6.888;2022-07-06T00:43:06;5.37;;;2.30;;
5245;SDS011;54412;51.206;6.888;2022-07-06T00:45:32;5.17;;;2.10;;
5245;SDS011;54412;51.206;6.888;2022-07-06T00:47:58;6.13;;;2.33;;
5245;SDS011;54412;51.206;6.888;2022-07-06T00:50:24;3.23;;;1.40;;
5245;SDS011;54412;51.206;6.888;2022-07-06T00:52:54;4.90;;;2.27;;
5245;SDS011;54412;51.206;6.888;2022-07-06T00:55:24;3.80;;;2.27;;
5245;SDS011;54412;51.206;6.888;2022-07-06T00:57:54;5.93;;;2.37;;
5245;SDS011;54412;51.206;6.888;2022-07-06T01:00:21;5.40;;;2.30;;
5245;SDS011;54412;51.206;6.888;2022-07-06T01:02:50;4.50;;;2.37;;
5245;SDS011;54412;51.206;6.888;2022-07-06T01:05:16;8.13;;;2.50;;
5245;SDS011;54412;51.206;6.888;2022-07-06T01:07:44;2.77;;;1.93;;
5245;SDS011;54412;51.206;6.888;2022-07-06T01:10:12;5.77;;;2.40;;
5245;SDS011;54412;51.206;6.888;2022-07-06T01:12:41;5.23;;;2.30;;
5245;SDS011;54412;51.206;6.888;2022-07-06T01:15:11;4.83;;;2.10;;
5245;SDS011;54412;51.206;6.888;2022-07-06T01:17:41;8.07;;;1.80;;
5245;SDS011;54412;51.206;6.888;2022-07-06T01:22:38;10.00;;;2.10;;
5245;SDS011;54412;51.206;6.888;2022-07-06T01:25:05;4.60;;;2.13;;
5245;SDS011;54412;51.206;6.888;2022-07-06T01:27:32;7.03;;;2.43;;
5245;SDS011;54412;51.206;6.888;2022-07-06T01:30:04;6.20;;;2.27;;
5245;SDS011;54412;51.206;6.888;2022-07-06T01:32:35;3.80;;;2.10;;
5245;SDS011;54412;51.206;6.888;2022-07-06T01:35:03;4.73;;;2.27;;
5245;SDS011;54412;51.206;6.888;2022-07-06T01:37:33;3.37;;;1.93;;
5245;SDS011;54412;51.206;6.888;2022-07-06T01:39:59;11.00;;;2.33;;
5245;SDS011;54412;51.206;6.888;2022-07-06T01:42:28;5.70;;;2.60;;
5245;SDS011;54412;51.206;6.888;2022-07-06T01:44:54;3.03;;;1.87;;
5245;SDS011;54412;51.206;6.888;2022-07-06T01:47:20;5.77;;;2.00;;
5245;SDS011;54412;51.206;6.888;2022-07-06T01:49:46;6.03;;;2.20;;
5245;SDS011;54412;51.206;6.888;2022-07-06T01:52:12;6.30;;;2.50;;
5245;SDS011;54412;51.206;6.888;2022-07-06T01:54:38;6.03;;;2.30;;
5245;SDS011;54412;51.206;6.888;2022-07-06T01:57:04;4.03;;;1.90;;
5245;SDS011;54412;51.206;6.888;2022-07-06T01:59:29;4.43;;;2.03;;
5245;SDS011;54412;51.206;6.888;2022-07-06T02:01:55;6.80;;;2.23;;
5245;SDS011;54412;51.206;6.888;2022-07-06T02:04:21;4.43;;;2.57;;
5245;SDS011;54412;51.206;6.888;2022-07-06T02:06:47;4.37;;;2.17;;
5245;SDS011;54412;51.206;6.888;2022-07-06T02:09:13;8.30;;;2.40;;
5245;SDS011;54412;51.206;6.888;2022-07-06T02:11:38;2.23;;;1.50;;
5245;SDS011;54412;51.206;6.888;2022-07-06T02:14:04;7.13;;;2.40;;
5245;SDS011;54412;51.206;6.888;2022-07-06T02:16:30;3.23;;;1.97;;
5245;SDS011;54412;51.206;6.888;2022-07-06T02:18:56;5.27;;;1.90;;
5245;SDS011;54412;51.206;6.888;2022-07-06T02:21:21;4.57;;;2.40;;
5245;SDS011;54412;51.206;6.888;2022-07-06T02:23:48;2.87;;;1.60;;
5245;SDS011;54412;51.206;6.888;2022-07-06T02:26:13;4.20;;;2.03;;
5245;SDS011;54412;51.206;6.888;2022-07-06T02:28:39;2.73;;;1.90;;
5245;SDS011;54412;51.206;6.888;2022-07-06T02:31:05;6.33;;;2.67;;
5245;SDS011;54412;51.206;6.888;2022-07-06T02:33:30;6.50;;;2.23;;
5245;SDS011;54412;51.206;6.888;2022-07-06T02:35:56;4.10;;;2.07;;
5245;SDS011;54412;51.206;6.888;2022-07-06T02:38:22;4.30;;;2.30;;
5245;SDS011;54412;51.206;6.888;2022-07-06T02:40:48;7.87;;;2.13;;
5245;SDS011;54412;51.206;6.888;2022-07-06T02:43:13;5.27;;;2.33;;
5245;SDS011;54412;51.206;6.888;2022-07-06T02:45:39;3.47;;;2.20;;
5245;SDS011;54412;51.206;6.888;2022-07-06T02:48:05;7.10;;;2.20;;
5245;SDS011;54412;51.206;6.888;2022-07-06T02:50:31;3.63;;;2.10;;
5245;SDS011;54412;51.206;6.888;2022-07-06T02:52:57;4.27;;;2.40;;
5245;SDS011;54412;51.206;6.888;2022-07-06T02:55:23;3.93;;;2.03;;
5245;SDS011;54412;51.206;6.888;2022-07-06T02:57:49;5.87;;;2.50;;
5245;SDS011;54412;51.206;6.888;2022-07-06T03:00:15;7.30;;;3.20;;
5245;SDS011;54412;51.206;6.888;2022-07-06T03:02:41;2.97;;;2.33;;
5245;SDS011;54412;51.206;6.888;2022-07-06T03:05:07;4.90;;;3.00;;
5245;SDS011;54412;51.206;6.888;2022-07-06T03:07:33;3.73;;;2.83;;
5245;SDS011;54412;51.206;6.888;2022-07-06T03:09:59;4.43;;;2.97;;
5245;SDS011;54412;51.206;6.888;2022-07-06T03:12:25;5.33;;;2.80;;
5245;SDS011;54412;51.206;6.888;2022-07-06T03:14:50;3.37;;;2.60;;
5245;SDS011;54412;51.206;6.888;2022-07-06T03:17:16;3.13;;;2.27;;
5245;SDS011;54412;51.206;6.888;2022-07-06T03:19:42;5.90;;;2.80;;
5245;SDS011;54412;51.206;6.888;2022-07-06T03:22:08;7.70;;;2.57;;
5245;SDS011;54412;51.206;6.888;2022-07-06T03:24:33;5.73;;;2.10;;
5245;SDS011;54412;51.206;6.888;2022-07-06T03:26:59;6.60;;;2.50;;
5245;SDS011;54412;51.206;6.888;2022-07-06T03:29:25;5.67;;;2.30;;
5245;SDS011;54412;51.206;6.888;2022-07-06T03:31:50;3.23;;;2.10;;
5245;SDS011;54412;51.206;6.888;2022-07-06T03:34:16;5.83;;;2.27;;
5245;SDS011;54412;51.206;6.888;2022-07-06T03:36:42;4.70;;;2.23;;
5245;SDS011;54412;51.206;6.888;2022-07-06T03:39:07;6.70;;;2.70;;
5245;SDS011;54412;51.206;6.888;2022-07-06T03:41:33;2.50;;;2.30;;
5245;SDS011;54412;51.206;6.888;2022-07-06T03:43:59;9.43;;;2.70;;
5245;SDS011;54412;51.206;6.888;2022-07-06T03:46:25;13.67;;;2.77;;
5245;SDS011;54412;51.206;6.888;2022-07-06T03:48:50;8.53;;;2.97;;
5245;SDS011;54412;51.206;6.888;2022-07-06T03:51:16;2.40;;;2.20;;
5245;SDS011;54412;51.206;6.888;2022-07-06T03:53:42;3.03;;;2.50;;
5245;SDS011;54412;51.206;6.888;2022-07-06T03:56:08;6.70;;;2.57;;
5245;SDS011;54412;51.206;6.888;2022-07-06T03:58:52;3.90;;;2.00;;
5245;SDS011;54412;51.206;6.888;2022-07-06T04:01:17;6.33;;;2.67;;
5245;SDS011;54412;51.206;6.888;2022-07-06T04:03:43;2.60;;;2.10;;
5245;SDS011;54412;51.206;6.888;2022-07-06T04:06:09;7.20;;;3.13;;
5245;SDS011;54412;51.206;6.888;2022-07-06T04:08:35;2.70;;;2.07;;
5245;SDS011;54412;51.206;6.888;2022-07-06T04:11:01;2.30;;;2.10;;
5245;SDS011;54412;51.206;6.888;2022-07-06T04:13:27;4.40;;;2.50;;
5245;SDS011;54412;51.206;6.888;2022-07-06T04:15:53;3.87;;;2.17;;
5245;SDS011;54412;51.206;6.888;2022-07-06T04:18:19;9.73;;;3.20;;
5245;SDS011;54412;51.206;6.888;2022-07-06T04:20:44;2.67;;;2.47;;
5245;SDS011;54412;51.206;6.888;2022-07-06T04:23:10;8.43;;;2.30;;
5245;SDS011;54412;51.206;6.888;2022-07-06T04:25:36;2.57;;;2.37;;
5245;SDS011;54412;51.206;6.888;2022-07-06T04:28:01;2.70;;;2.43;;
5245;SDS011;54412;51.206;6.888;2022-07-06T04:30:28;3.63;;;2.60;;
5245;SDS011;54412;51.206;6.888;2022-07-06T04:32:54;2.73;;;2.53;;
5245;SDS011;54412;51.206;6.888;2022-07-06T04:35:20;6.60;;;3.03;;
5245;SDS011;54412;51.206;6.888;2022-07-06T04:37:46;8.90;;;2.63;;
5245;SDS011;54412;51.206;6.888;2022-07-06T04:40:12;4.27;;;3.27;;
5245;SDS011;54412;51.206;6.888;2022-07-06T04:42:39;4.80;;;3.17;;
5245;SDS011;54412;51.206;6.888;2022-07-06T04:45:05;4.40;;;2.57;;
5245;SDS011;54412;51.206;6.888;2022-07-06T04:47:32;7.60;;;3.10;;
5245;SDS011;54412;51.206;6.888;2022-07-06T04:49:58;6.50;;;2.70;;
5245;SDS011;54412;51.206;6.888;2022-07-06T04:52:23;4.33;;;2.57;;
5245;SDS011;54412;51.206;6.888;2022-07-06T04:54:49;7.40;;;3.10;;
5245;SDS011;54412;51.206;6.888;2022-07-06T04:57:15;7.90;;;2.60;;
5245;SDS011;54412;51.206;6.888;2022-07-06T04:59:41;4.93;;;3.10;;
5245;SDS011;54412;51.206;6.888;2022-07-06T05:02:06;3.03;;;2.73;;
5245;SDS011;54412;51.206;6.888;2022-07-06T05:04:32;3.67;;;2.93;;
5245;SDS011;54412;51.206;6.888;2022-07-06T05:06:58;3.10;;;2.60;;
5245;SDS011;54412;51.206;6.888;2022-07-06T05:09:24;5.10;;;3.23;;
5245;SDS011;54412;51.206;6.888;2022-07-06T05:11:50;3.93;;;2.80;;
5245;SDS011;54412;51.206;6.888;2022-07-06T05:14:16;6.00;;;3.20;;
5245;SDS011;54412;51.206;6.888;2022-07-06T05:16:41;3.90;;;3.20;;
5245;SDS011;54412;51.206;6.888;2022-07-06T05:19:07;3.97;;;2.30;;
5245;SDS011;54412;51.206;6.888;2022-07-06T05:21:33;4.87;;;2.60;;
5245;SDS011;54412;51.206;6.888;2022-07-06T05:23:58;4.30;;;2.67;;
5245;SDS011;54412;51.206;6.888;2022-07-06T05:26:24;5.13;;;2.60;;
5245;SDS011;54412;51.206;6.888;2022-07-06T05:28:50;6.33;;;2.90;;
5245;SDS011;54412;51.206;6.888;2022-07-06T05:31:16;7.40;;;3.27;;
5245;SDS011;54412;51.206;6.888;2022-07-06T05:33:42;4.60;;;2.80;;
5245;SDS011;54412;51.206;6.888;2022-07-06T05:36:07;7.53;;;3.00;;
5245;SDS011;54412;51.206;6.888;2022-07-06T05:38:33;2.33;;;2.10;;
5245;SDS011;54412;51.206;6.888;2022-07-06T05:40:59;3.33;;;2.50;;
5245;SDS011;54412;51.206;6.888;2022-07-06T05:43:24;8.47;;;2.57;;
5245;SDS011;54412;51.206;6.888;2022-07-06T05:45:50;7.80;;;2.60;;
5245;SDS011;54412;51.206;6.888;2022-07-06T05:48:16;7.20;;;2.23;;
5245;SDS011;54412;51.206;6.888;2022-07-06T05:51:00;3.83;;;2.20;;
5245;SDS011;54412;51.206;6.888;2022-07-06T05:53:26;3.33;;;1.90;;
5245;SDS011;54412;51.206;6.888;2022-07-06T05:55:52;4.10;;;2.10;;
5245;SDS011;54412;51.206;6.888;2022-07-06T05:58:18;8.93;;;2.20;;
5245;SDS011;54412;51.206;6.888;2022-07-06T06:00:43;3.70;;;2.00;;
5245;SDS011;54412;51.206;6.888;2022-07-06T06:03:09;5.20;;;1.80;;
5245;SDS011;54412;51.206;6.888;2022-07-06T06:05:35;2.83;;;1.80;;
5245;SDS011;54412;51.206;6.888;2022-07-06T06:08:01;3.60;;;1.90;;
5245;SDS011;54412;51.206;6.888;2022-07-06T06:10:27;2.80;;;1.60;;
5245;SDS011;54412;51.206;6.888;2022-07-06T06:12:52;7.90;;;2.23;;
5245;SDS011;54412;51.206;6.888;2022-07-06T06:15:18;2.80;;;1.57;;
5245;SDS011;54412;51.206;6.888;2022-07-06T06:17:44;4.17;;;2.00;;
5245;SDS011;54412;51.206;6.888;2022-07-06T06:20:11;4.60;;;1.60;;
5245;SDS011;54412;51.206;6.888;2022-07-06T06:25:12;5.30;;;2.00;;
5245;SDS011;54412;51.206;6.888;2022-07-06T06:27:39;7.03;;;1.80;;
5245;SDS011;54412;51.206;6.888;2022-07-06T06:30:05;3.67;;;2.00;;
5245;SDS011;54412;51.206;6.888;2022-07-06T06:32:31;2.03;;;1.83;;
5245;SDS011;54412;51.206;6.888;2022-07-06T06:34:57;3.73;;;1.73;;
5245;SDS011;54412;51.206;6.888;2022-07-06T06:37:22;6.60;;;1.83;;
5245;SDS011;54412;51.206;6.888;2022-07-06T06:39:48;2.80;;;1.60;;
5245;SDS011;54412;51.206;6.888;2022-07-06T06:42:13;7.73;;;1.80;;
5245;SDS011;54412;51.206;6.888;2022-07-06T06:44:39;4.33;;;1.67;;
5245;SDS011;54412;51.206;6.888;2022-07-06T06:47:05;2.27;;;1.50;;
5245;SDS011;54412;51.206;6.888;2022-07-06T06:49:30;5.60;;;1.73;;
5245;SDS011;54412;51.206;6.888;2022-07-06T06:51:56;5.80;;;1.87;;
5245;SDS011;54412;51.206;6.888;2022-07-06T06:54:22;6.53;;;1.37;;
5245;SDS011;54412;51.206;6.888;2022-07-06T06:56:47;3.43;;;1.40;;
5245;SDS011;54412;51.206;6.888;2022-07-06T06:59:13;9.30;;;1.70;;
5245;SDS011;54412;51.206;6.888;2022-07-06T07:01:39;7.10;;;2.10;;
5245;SDS011;54412;51.206;6.888;2022-07-06T07:04:04;4.17;;;1.40;;
5245;SDS011;54412;51.206;6.888;2022-07-06T07:06:31;7.50;;;2.23;;
5245;SDS011;54412;51.206;6.888;2022-07-06T07:08:57;1.67;;;1.47;;
5245;SDS011;54412;51.206;6.888;2022-07-06T07:11:23;6.10;;;1.80;;
5245;SDS011;54412;51.206;6.888;2022-07-06T07:13:48;5.70;;;1.27;;
5245;SDS011;54412;51.206;6.888;2022-07-06T07:16:14;2.67;;;0.90;;
5245;SDS011;54412;51.206;6.888;2022-07-06T07:18:40;6.37;;;1.13;;
5245;SDS011;54412;51.206;6.888;2022-07-06T07:21:06;1.03;;;0.93;;
5245;SDS011;54412;51.206;6.888;2022-07-06T07:23:32;2.83;;;1.40;;
5245;SDS011;54412;51.206;6.888;2022-07-06T07:25:57;6.43;;;1.10;;
5245;SDS011;54412;51.206;6.888;2022-07-06T07:28:23;2.93;;;1.27;;
5245;SDS011;54412;51.206;6.888;2022-07-06T07:30:49;4.10;;;1.20;;
5245;SDS011;54412;51.206;6.888;2022-07-06T07:33:15;6.10;;;1.60;;
5245;SDS011;54412;51.206;6.888;2022-07-06T07:35:41;4.57;;;1.43;;
5245;SDS011;54412;51.206;6.888;2022-07-06T07:38:07;6.60;;;1.37;;
5245;SDS011;54412;51.206;6.888;2022-07-06T07:40:32;0.80;;;0.80;;
5245;SDS011;54412;51.206;6.888;2022-07-06T07:42:59;1.27;;;1.17;;
5245;SDS011;54412;51.206;6.888;2022-07-06T07:45:24;5.23;;;1.30;;
5245;SDS011;54412;51.206;6.888;2022-07-06T07:47:50;2.70;;;0.90;;
5245;SDS011;54412;51.206;6.888;2022-07-06T07:50:16;1.33;;;0.80;;
5245;SDS011;54412;51.206;6.888;2022-07-06T07:52:43;5.33;;;1.30;;
5245;SDS011;54412;51.206;6.888;2022-07-06T07:55:09;4.43;;;0.90;;
5245;SDS011;54412;51.206;6.888;2022-07-06T07:57:35;2.30;;;0.77;;
5245;SDS011;54412;51.206;6.888;2022-07-06T08:00:01;2.70;;;1.00;;
5245;SDS011;54412;51.206;6.888;2022-07-06T08:02:28;2.40;;;0.90;;
5245;SDS011;54412;51.206;6.888;2022-07-06T08:04:54;1.97;;;0.87;;
5245;SDS011;54412;51.206;6.888;2022-07-06T08:07:20;1.23;;;0.63;;
5245;SDS011;54412;51.206;6.888;2022-07-06T08:09:45;1.03;;;0.73;;
5245;SDS011;54412;51.206;6.888;2022-07-06T08:12:11;6.40;;;1.30;;
5245;SDS011;54412;51.206;6.888;2022-07-06T08:14:37;4.13;;;1.60;;
5245;SDS011;54412;51.206;6.888;2022-07-06T08:17:03;1.43;;;0.80;;
5245;SDS011;54412;51.206;6.888;2022-07-06T08:19:29;2.07;;;1.03;;
5245;SDS011;54412;51.206;6.888;2022-07-06T08:21:56;2.97;;;0.80;;
5245;SDS011;54412;51.206;6.888;2022-07-06T08:24:22;4.03;;;0.83;;
5245;SDS011;54412;51.206;6.888;2022-07-06T08:26:49;11.73;;;0.80;;
5245;SDS011;54412;51.206;6.888;2022-07-06T08:29:15;1.20;;;0.60;;
5245;SDS011;54412;51.206;6.888;2022-07-06T08:31:40;6.03;;;1.17;;
5245;SDS011;54412;51.206;6.888;2022-07-06T08:34:06;4.43;;;1.17;;
5245;SDS011;54412;51.206;6.888;2022-07-06T08:36:32;2.00;;;1.30;;
5245;SDS011;54412;51.206;6.888;2022-07-06T08:38:58;2.43;;;1.03;;
5245;SDS011;54412;51.206;6.888;2022-07-06T08:41:25;1.33;;;0.90;;
5245;SDS011;54412;51.206;6.888;2022-07-06T08:43:53;6.63;;;1.13;;
5245;SDS011;54412;51.206;6.888;2022-07-06T08:46:20;2.50;;;1.07;;
5245;SDS011;54412;51.206;6.888;2022-07-06T08:48:46;1.57;;;0.80;;
5245;SDS011;54412;51.206;6.888;2022-07-06T08:51:14;1.70;;;0.80;;
5245;SDS011;54412;51.206;6.888;2022-07-06T08:53:41;4.20;;;0.93;;
5245;SDS011;54412;51.206;6.888;2022-07-06T08:56:08;6.97;;;1.47;;
5245;SDS011;54412;51.206;6.888;2022-07-06T08:58:34;4.20;;;0.90;;
5245;SDS011;54412;51.206;6.888;2022-07-06T09:01:00;5.23;;;1.00;;
5245;SDS011;54412;51.206;6.888;2022-07-06T09:03:27;9.00;;;0.97;;
5245;SDS011;54412;51.206;6.888;2022-07-06T09:05:55;4.83;;;1.10;;
5245;SDS011;54412;51.206;6.888;2022-07-06T09:08:27;1.13;;;0.90;;
5245;SDS011;54412;51.206;6.888;2022-07-06T09:10:54;4.03;;;1.00;;
5245;SDS011;54412;51.206;6.888;2022-07-06T09:13:20;12.30;;;1.43;;
5245;SDS011;54412;51.206;6.888;2022-07-06T09:15:45;4.17;;;1.03;;
5245;SDS011;54412;51.206;6.888;2022-07-06T09:18:11;5.23;;;0.87;;
5245;SDS011;54412;51.206;6.888;2022-07-06T09:20:37;1.27;;;0.87;;
5245;SDS011;54412;51.206;6.888;2022-07-06T09:23:05;2.90;;;0.77;;
5245;SDS011;54412;51.206;6.888;2022-07-06T09:25:32;1.60;;;1.00;;
5245;SDS011;54412;51.206;6.888;2022-07-06T09:27:59;3.30;;;0.97;;
5245;SDS011;54412;51.206;6.888;2022-07-06T09:30:26;2.43;;;0.70;;
5245;SDS011;54412;51.206;6.888;2022-07-06T09:32:55;4.00;;;1.20;;
5245;SDS011;54412;51.206;6.888;2022-07-06T09:35:26;0.63;;;0.63;;
5245;SDS011;54412;51.206;6.888;2022-07-06T09:40:39;1.07;;;0.97;;
5245;SDS011;54412;51.206;6.888;2022-07-06T09:45:39;2.30;;;1.40;;
5245;SDS011;54412;51.206;6.888;2022-07-06T09:48:08;0.90;;;0.67;;
5245;SDS011;54412;51.206;6.888;2022-07-06T09:50:43;1.13;;;0.80;;
5245;SDS011;54412;51.206;6.888;2022-07-06T09:53:12;0.97;;;0.50;;
5245;SDS011;54412;51.206;6.888;2022-07-06T09:55:42;2.67;;;1.07;;
5245;SDS011;54412;51.206;6.888;2022-07-06T09:58:10;6.37;;;1.13;;
5245;SDS011;54412;51.206;6.888;2022-07-06T10:00:35;3.70;;;1.17;;
5245;SDS011;54412;51.206;6.888;2022-07-06T10:03:01;1.90;;;0.80;;
5245;SDS011;54412;51.206;6.888;2022-07-06T10:05:28;0.80;;;0.70;;
5245;SDS011;54412;51.206;6.888;2022-07-06T10:07:57;0.93;;;0.63;;
5245;SDS011;54412;51.206;6.888;2022-07-06T10:10:26;2.73;;;0.70;;
5245;SDS011;54412;51.206;6.888;2022-07-06T10:12:54;2.10;;;0.93;;
5245;SDS011;54412;51.206;6.888;2022-07-06T10:15:23;2.70;;;0.90;;
5245;SDS011;54412;51.206;6.888;2022-07-06T10:17:58;2.07;;;1.30;;
5245;SDS011;54412;51.206;6.888;2022-07-06T10:20:30;2.03;;;0.77;;
5245;SDS011;54412;51.206;6.888;2022-07-06T10:22:59;3.73;;;0.90;;
5245;SDS011;54412;51.206;6.888;2022-07-06T10:25:26;3.47;;;1.00;;
5245;SDS011;54412;51.206;6.888;2022-07-06T10:27:53;2.87;;;1.13;;
5245;SDS011;54412;51.206;6.888;2022-07-06T10:30:20;1.23;;;0.80;;
5245;SDS011;54412;51.206;6.888;2022-07-06T10:32:48;3.43;;;1.20;;
5245;SDS011;54412;51.206;6.888;2022-07-06T10:35:16;1.53;;;0.80;;
5245;SDS011;54412;51.206;6.888;2022-07-06T10:37:45;7.70;;;1.00;;
5245;SDS011;54412;51.206;6.888;2022-07-06T10:40:35;1.90;;;0.90;;
5245;SDS011;54412;51.206;6.888;2022-07-06T10:43:30;1.60;;;1.00;;
5245;SDS011;54412;51.206;6.888;2022-07-06T10:46:13;1.40;;;0.77;;
5245;SDS011;54412;51.206;6.888;2022-07-06T10:48:44;2.93;;;0.80;;
5245;SDS011;54412;51.206;6.888;2022-07-06T10:51:12;2.20;;;1.07;;
5245;SDS011;54412;51.206;6.888;2022-07-06T10:53:54;5.10;;;1.77;;
5245;SDS011;54412;51.206;6.888;2022-07-06T10:56:35;1.17;;;1.00;;
5245;SDS011;54412;51.206;6.888;2022-07-06T10:59:11;1.33;;;0.80;;
5245;SDS011;54412;51.206;6.888;2022-07-06T11:04:48;4.90;;;0.70;;
5245;SDS011;54412;51.206;6.888;2022-07-06T11:07:15;0.63;;;0.63;;
5245;SDS011;54412;51.206;6.888;2022-07-06T11:09:53;3.17;;;1.10;;
5245;SDS011;54412;51.206;6.888;2022-07-06T11:12:24;1.53;;;0.80;;
5245;SDS011;54412;51.206;6.888;2022-07-06T11:14:51;1.47;;;0.73;;
5245;SDS011;54412;51.206;6.888;2022-07-06T11:17:17;0.83;;;0.70;;
5245;SDS011;54412;51.206;6.888;2022-07-06T11:19:50;2.40;;;0.77;;
5245;SDS011;54412;51.206;6.888;2022-07-06T11:22:35;1.70;;;0.90;;
5245;SDS011;54412;51.206;6.888;2022-07-06T11:25:03;1.83;;;0.87;;
5245;SDS011;54412;51.206;6.888;2022-07-06T11:27:33;7.10;;;1.00;;
5245;SDS011;54412;51.206;6.888;2022-07-06T11:30:00;1.03;;;0.80;;
5245;SDS011;54412;51.206;6.888;2022-07-06T11:32:26;1.47;;;0.97;;
5245;SDS011;54412;51.206;6.888;2022-07-06T11:34:53;4.07;;;1.00;;
5245;SDS011;54412;51.206;6.888;2022-07-06T11:37:18;1.10;;;0.90;;
5245;SDS011;54412;51.206;6.888;2022-07-06T11:39:45;1.60;;;1.20;;
5245;SDS011;54412;51.206;6.888;2022-07-06T11:42:13;1.63;;;0.60;;
5245;SDS011;54412;51.206;6.888;2022-07-06T11:44:44;3.00;;;0.90;;
5245;SDS011;54412;51.206;6.888;2022-07-06T11:47:11;4.77;;;0.80;;
5245;SDS011;54412;51.206;6.888;2022-07-06T11:49:39;1.50;;;0.77;;
5245;SDS011;54412;51.206;6.888;2022-07-06T11:52:06;4.57;;;0.70;;
5245;SDS011;54412;51.206;6.888;2022-07-06T11:54:34;1.17;;;0.70;;
5245;SDS011;54412;51.206;6.888;2022-07-06T11:57:00;0.70;;;0.70;;
5245;SDS011;54412;51.206;6.888;2022-07-06T11:59:29;4.07;;;0.70;;
5245;SDS011;54412;51.206;6.888;2022-07-06T12:02:02;1.57;;;0.80;;
5245;SDS011;54412;51.206;6.888;2022-07-06T12:04:38;1.70;;;0.93;;
5245;SDS011;54412;51.206;6.888;2022-07-06T12:07:11;1.20;;;0.63;;
5245;SDS011;54412;51.206;6.888;2022-07-06T12:09:44;4.10;;;1.27;;
5245;SDS011;54412;51.206;6.888;2022-07-06T12:12:12;17.77;;;1.27;;
5245;SDS011;54412;51.206;6.888;2022-07-06T12:14:39;1.77;;;0.67;;
5245;SDS011;54412;51.206;6.888;2022-07-06T12:17:08;7.87;;;0.97;;
5245;SDS011;54412;51.206;6.888;2022-07-06T12:19:37;2.10;;;0.63;;
5245;SDS011;54412;51.206;6.888;2022-07-06T12:22:04;2.00;;;0.83;;
5245;SDS011;54412;51.206;6.888;2022-07-06T12:24:32;3.30;;;0.97;;
5245;SDS011;54412;51.206;6.888;2022-07-06T12:27:11;2.03;;;1.00;;
5245;SDS011;54412;51.206;6.888;2022-07-06T12:29:47;4.60;;;1.30;;
5245;SDS011;54412;51.206;6.888;2022-07-06T12:32:14;3.30;;;0.90;;
5245;SDS011;54412;51.206;6.888;2022-07-06T12:34:43;0.97;;;0.70;;
5245;SDS011;54412;51.206;6.888;2022-07-06T12:37:09;1.30;;;0.90;;
5245;SDS011;54412;51.206;6.888;2022-07-06T12:39:44;2.20;;;0.70;;
5245;SDS011;54412;51.206;6.888;2022-07-06T12:42:15;5.10;;;0.77;;
5245;SDS011;54412;51.206;6.888;2022-07-06T12:44:51;2.60;;;0.90;;
5245;SDS011;54412;51.206;6.888;2022-07-06T12:47:18;10.03;;;1.17;;
5245;SDS011;54412;51.206;6.888;2022-07-06T12:49:48;0.70;;;0.70;;
5245;SDS011;54412;51.206;6.888;2022-07-06T12:52:35;2.80;;;1.00;;
5245;SDS011;54412;51.206;6.888;2022-07-06T12:55:03;4.00;;;1.20;;
5245;SDS011;54412;51.206;6.888;2022-07-06T12:57:42;0.77;;;0.77;;
5245;SDS011;54412;51.206;6.888;2022-07-06T13:00:10;2.10;;;1.10;;
5245;SDS011;54412;51.206;6.888;2022-07-06T13:02:36;2.97;;;1.07;;
5245;SDS011;54412;51.206;6.888;2022-07-06T13:05:04;4.83;;;0.90;;
5245;SDS011;54412;51.206;6.888;2022-07-06T13:07:30;0.67;;;0.67;;
5245;SDS011;54412;51.206;6.888;2022-07-06T13:10:00;6.93;;;1.30;;
5245;SDS011;54412;51.206;6.888;2022-07-06T13:12:29;4.90;;;0.90;;
5245;SDS011;54412;51.206;6.888;2022-07-06T13:14:55;1.03;;;0.67;;
5245;SDS011;54412;51.206;6.888;2022-07-06T13:17:22;0.57;;;0.50;;
5245;SDS011;54412;51.206;6.888;2022-07-06T13:19:48;2.03;;;1.17;;
5245;SDS011;54412;51.206;6.888;2022-07-06T13:22:14;1.57;;;0.83;;
5245;SDS011;54412;51.206;6.888;2022-07-06T13:24:40;0.87;;;0.80;;
5245;SDS011;54412;51.206;6.888;2022-07-06T13:27:06;5.03;;;1.00;;
5245;SDS011;54412;51.206;6.888;2022-07-06T13:29:33;3.27;;;0.80;;
5245;SDS011;54412;51.206;6.888;2022-07-06T13:31:58;1.80;;;0.70;;
5245;SDS011;54412;51.206;6.888;2022-07-06T13:34:24;3.30;;;0.90;;
5245;SDS011;54412;51.206;6.888;2022-07-06T13:36:50;3.63;;;0.90;;
5245;SDS011;54412;51.206;6.888;2022-07-06T13:39:17;3.33;;;0.90;;
5245;SDS011;54412;51.206;6.888;2022-07-06T13:41:44;1.37;;;0.90;;
5245;SDS011;54412;51.206;6.888;2022-07-06T13:44:10;0.97;;;0.50;;
5245;SDS011;54412;51.206;6.888;2022-07-06T13:46:37;4.30;;;1.00;;
5245;SDS011;54412;51.206;6.888;2022-07-06T13:49:07;3.37;;;0.90;;
5245;SDS011;54412;51.206;6.888;2022-07-06T13:51:33;9.93;;;1.23;;
5245;SDS011;54412;51.206;6.888;2022-07-06T13:53:59;4.27;;;1.20;;
5245;SDS011;54412;51.206;6.888;2022-07-06T13:56:26;12.80;;;1.20;;
5245;SDS011;54412;51.206;6.888;2022-07-06T13:58:52;7.80;;;1.57;;
5245;SDS011;54412;51.206;6.888;2022-07-06T14:01:18;5.57;;;0.87;;
5245;SDS011;54412;51.206;6.888;2022-07-06T14:03:44;3.70;;;1.13;;
5245;SDS011;54412;51.206;6.888;2022-07-06T14:06:11;1.57;;;0.90;;
5245;SDS011;54412;51.206;6.888;2022-07-06T14:08:38;6.13;;;0.93;;
5245;SDS011;54412;51.206;6.888;2022-07-06T14:11:05;7.27;;;0.97;;
5245;SDS011;54412;51.206;6.888;2022-07-06T14:13:33;4.37;;;0.80;;
5245;SDS011;54412;51.206;6.888;2022-07-06T14:16:01;3.23;;;0.63;;
5245;SDS011;54412;51.206;6.888;2022-07-06T14:18:29;1.10;;;1.00;;
5245;SDS011;54412;51.206;6.888;2022-07-06T14:20:55;2.30;;;0.77;;
5245;SDS011;54412;51.206;6.888;2022-07-06T14:23:21;5.63;;;0.70;;
5245;SDS011;54412;51.206;6.888;2022-07-06T14:25:49;3.10;;;1.00;;
5245;SDS011;54412;51.206;6.888;2022-07-06T14:28:16;3.23;;;1.13;;
5245;SDS011;54412;51.206;6.888;2022-07-06T14:30:42;3.23;;;0.90;;
5245;SDS011;54412;51.206;6.888;2022-07-06T14:33:11;1.70;;;1.27;;
5245;SDS011;54412;51.206;6.888;2022-07-06T14:35:43;3.60;;;1.50;;
5245;SDS011;54412;51.206;6.888;2022-07-06T14:38:12;3.70;;;1.10;;
5245;SDS011;54412;51.206;6.888;2022-07-06T14:40:42;2.00;;;1.00;;
5245;SDS011;54412;51.206;6.888;2022-07-06T14:43:09;6.00;;;1.00;;
5245;SDS011;54412;51.206;6.888;2022-07-06T14:45:35;1.63;;;0.70;;
5245;SDS011;54412;51.206;6.888;2022-07-06T14:48:01;2.83;;;1.30;;
5245;SDS011;54412;51.206;6.888;2022-07-06T14:50:28;2.40;;;0.90;;
5245;SDS011;54412;51.206;6.888;2022-07-06T14:52:54;1.63;;;0.87;;
5245;SDS011;54412;51.206;6.888;2022-07-06T14:55:20;2.30;;;1.00;;
5245;SDS011;54412;51.206;6.888;2022-07-06T14:57:46;5.13;;;0.90;;
5245;SDS011;54412;51.206;6.888;2022-07-06T15:00:13;2.20;;;0.60;;
5245;SDS011;54412;51.206;6.888;2022-07-06T15:02:40;2.20;;;0.97;;
5245;SDS011;54412;51.206;6.888;2022-07-06T15:05:06;0.87;;;0.60;;
5245;SDS011;54412;51.206;6.888;2022-07-06T15:07:33;1.67;;;0.70;;
5245;SDS011;54412;51.206;6.888;2022-07-06T15:09:59;6.20;;;0.80;;
5245;SDS011;54412;51.206;6.888;2022-07-06T15:12:25;3.90;;;0.70;;
5245;SDS011;54412;51.206;6.888;2022-07-06T15:14:50;7.03;;;1.10;;